createdAt,value
2023-05-02T00:00:59.721Z,13.53
2023-05-02T00:03:31.105Z,13.52
2023-05-02T00:06:02.934Z,13.75
2023-05-02T00:08:42.805Z,13.48
2023-05-02T00:11:12.912Z,13.07
2023-05-02T00:13:45.235Z,13.85
2023-05-02T00:16:18.720Z,13.85
2023-05-02T00:18:45.927Z,14.10
2023-05-02T00:21:17.602Z,14.48
2023-05-02T00:24:00.774Z,14.15
2023-05-02T00:26:32.990Z,14.73
2023-05-02T00:29:06.677Z,16.27
2023-05-02T00:31:40.584Z,14.88
2023-05-02T00:34:07.578Z,14.20
2023-05-02T00:36:38.700Z,14.77
2023-05-02T00:39:11.856Z,15.70
2023-05-02T00:41:45.376Z,15.60
2023-05-02T00:44:18.408Z,15.20
2023-05-02T00:46:49.291Z,14.85
2023-05-02T00:49:35.487Z,14.87
2023-05-02T00:52:09.999Z,14.98
2023-05-02T00:54:40.838Z,15.30
2023-05-02T00:57:11.275Z,15.13
2023-05-02T00:59:43.843Z,14.15
2023-05-02T01:02:24.364Z,15.63
2023-05-02T01:04:53.046Z,15.43
2023-05-02T01:07:23.220Z,14.85
2023-05-02T01:10:17.307Z,15.05
2023-05-02T01:13:00.124Z,15.10
2023-05-02T01:15:30.320Z,15.57
2023-05-02T01:20:29.710Z,15.93
2023-05-02T01:23:00.870Z,16.02
2023-05-02T01:25:47.041Z,14.98
2023-05-02T01:28:26.564Z,16.02
2023-05-02T01:30:58.563Z,16.50
2023-05-02T01:33:31.525Z,17.17
2023-05-02T01:36:04.652Z,16.58
2023-05-02T01:38:45.138Z,16.77
2023-05-02T01:41:16.096Z,17.33
2023-05-02T01:43:52.091Z,16.08
2023-05-02T01:46:25.819Z,15.93
2023-05-02T01:48:55.052Z,17.33
2023-05-02T01:51:47.918Z,15.60
2023-05-02T01:54:26.417Z,15.10
2023-05-02T01:56:59.450Z,16.17
2023-05-02T01:59:39.966Z,15.27
2023-05-02T02:02:10.238Z,15.60
2023-05-02T02:04:40.114Z,15.52
2023-05-02T02:07:16.585Z,14.25
2023-05-02T02:09:51.729Z,13.70
2023-05-02T02:12:30.373Z,13.77
2023-05-02T02:15:19.046Z,13.93
2023-05-02T02:17:53.030Z,13.68
2023-05-02T02:20:39.722Z,13.63
2023-05-02T02:23:13.671Z,13.45
2023-05-02T02:25:59.654Z,12.73
2023-05-02T02:28:30.963Z,11.90
2023-05-02T02:31:03.573Z,12.45
2023-05-02T02:33:35.721Z,12.27
2023-05-02T02:36:08.828Z,12.07
2023-05-02T02:39:20.304Z,11.85
2023-05-02T02:41:53.017Z,11.45
2023-05-02T02:44:29.096Z,11.73
2023-05-02T02:46:57.751Z,11.48
2023-05-02T02:49:45.082Z,12.13
2023-05-02T02:52:25.010Z,12.45
2023-05-02T02:54:57.755Z,12.82
2023-05-02T02:57:55.675Z,12.25
2023-05-02T03:00:30.436Z,12.97
2023-05-02T03:03:05.871Z,12.38
2023-05-02T03:05:44.548Z,12.40
2023-05-02T03:08:16.075Z,12.05
2023-05-02T03:10:46.615Z,11.75
2023-05-02T03:13:18.893Z,11.35
2023-05-02T03:15:53.883Z,11.77
2023-05-02T03:18:27.687Z,12.25
2023-05-02T03:21:00.834Z,11.18
2023-05-02T03:23:30.197Z,11.80
2023-05-02T03:26:03.230Z,11.68
2023-05-02T03:28:36.821Z,10.98
2023-05-02T03:31:08.450Z,10.65
2023-05-02T03:34:02.239Z,11.00
2023-05-02T03:36:39.181Z,10.20
2023-05-02T03:39:10.949Z,9.98
2023-05-02T03:41:44.490Z,10.07
2023-05-02T03:44:22.744Z,10.38
2023-05-02T03:46:56.652Z,9.57
2023-05-02T03:49:43.380Z,10.30
2023-05-02T03:52:19.604Z,9.77
2023-05-02T03:55:19.743Z,10.05
2023-05-02T03:57:50.307Z,11.35
2023-05-02T04:00:19.564Z,9.20
2023-05-02T04:02:57.160Z,9.50
2023-05-02T04:05:33.556Z,9.25
2023-05-02T04:08:07.063Z,11.63
2023-05-02T04:10:34.356Z,9.50
2023-05-02T04:13:09.103Z,9.10
2023-05-02T04:15:44.312Z,8.48
2023-05-02T04:18:20.115Z,11.27
2023-05-02T04:20:51.040Z,9.45
2023-05-02T04:23:24.790Z,8.32
2023-05-02T04:28:44.713Z,8.82
2023-05-02T04:31:16.827Z,8.82
2023-05-02T04:33:52.738Z,9.00
2023-05-02T04:36:47.276Z,8.43
2023-05-02T04:39:27.398Z,10.25
2023-05-02T04:45:09.797Z,8.25
2023-05-02T04:47:45.418Z,6.97
2023-05-02T04:50:19.329Z,6.75
2023-05-02T04:55:44.015Z,6.05
2023-05-02T04:58:14.756Z,6.85
2023-05-02T05:00:46.843Z,6.25
2023-05-02T05:03:14.088Z,7.35
2023-05-02T05:05:47.750Z,6.70
2023-05-02T05:08:27.326Z,6.65
2023-05-02T05:10:59.923Z,7.60
2023-05-02T05:13:28.619Z,7.00
2023-05-02T05:16:02.233Z,7.43
2023-05-02T05:18:43.730Z,5.82
2023-05-02T05:21:31.218Z,5.20
2023-05-02T05:24:05.998Z,5.18
2023-05-02T05:29:10.648Z,4.60
2023-05-02T05:31:46.131Z,4.68
2023-05-02T05:34:24.699Z,4.47
2023-05-02T05:37:02.371Z,4.63
2023-05-02T05:39:29.424Z,4.28
2023-05-02T05:42:02.750Z,3.57
2023-05-02T05:44:34.358Z,3.10
2023-05-02T05:47:02.823Z,3.10
2023-05-02T05:49:34.200Z,3.35
2023-05-02T05:52:07.332Z,2.95
2023-05-02T05:54:56.883Z,3.25
2023-05-02T05:57:35.195Z,3.30
2023-05-02T06:00:07.591Z,2.40
2023-05-02T06:02:49.222Z,2.47
2023-05-02T06:05:30.478Z,3.20
2023-05-02T06:08:16.761Z,2.58
2023-05-02T06:10:49.342Z,2.47
2023-05-02T06:13:19.556Z,2.65
2023-05-02T06:15:54.097Z,2.58
2023-05-02T06:18:23.175Z,2.30
2023-05-02T06:20:50.619Z,2.80
2023-05-02T06:23:21.486Z,2.50
2023-05-02T06:25:54.342Z,2.90
2023-05-02T06:28:28.140Z,2.50
2023-05-02T06:31:06.599Z,2.40
2023-05-02T06:33:39.650Z,2.30
2023-05-02T06:36:12.386Z,3.15
2023-05-02T06:38:42.083Z,4.35
2023-05-02T06:41:17.963Z,3.70
2023-05-02T06:43:48.136Z,2.90
2023-05-02T06:46:31.500Z,2.40
2023-05-02T06:49:03.175Z,2.20
2023-05-02T06:51:37.061Z,3.65
2023-05-02T06:54:08.845Z,2.95
2023-05-02T06:56:43.557Z,2.20
2023-05-02T06:59:19.369Z,2.38
2023-05-02T07:01:51.836Z,2.10
2023-05-02T07:04:26.154Z,2.40
2023-05-02T07:07:05.981Z,2.40
2023-05-02T07:09:40.595Z,2.00
2023-05-02T07:12:18.033Z,2.30
2023-05-02T07:14:48.014Z,2.50
2023-05-02T07:17:21.544Z,2.30
2023-05-02T07:25:26.933Z,4.35
2023-05-02T07:28:00.526Z,3.53
2023-05-02T07:30:35.794Z,3.50
2023-05-02T07:33:11.485Z,3.08
2023-05-02T07:35:50.927Z,3.45
2023-05-02T07:38:20.396Z,8.43
2023-05-02T07:40:55.725Z,3.72
2023-05-02T07:43:26.989Z,4.47
2023-05-02T07:45:57.553Z,4.10
2023-05-02T07:48:41.897Z,4.72
2023-05-02T07:51:24.746Z,4.72
2023-05-02T07:54:13.670Z,5.07
2023-05-02T07:56:45.177Z,5.40
2023-05-02T07:59:27.156Z,5.50
2023-05-02T08:01:54.383Z,5.72
2023-05-02T08:07:17.517Z,5.25
2023-05-02T08:09:49.515Z,5.63
2023-05-02T08:12:28.750Z,5.35
2023-05-02T08:15:05.186Z,5.60
2023-05-02T08:17:40.684Z,5.13
2023-05-02T08:20:12.115Z,5.53
2023-05-02T08:22:49.665Z,5.30
2023-05-02T08:25:22.996Z,5.30
2023-05-02T08:27:54.972Z,23.50
2023-05-02T08:30:31.906Z,5.95
2023-05-02T08:33:05.579Z,6.03
2023-05-02T08:35:40.901Z,6.50
2023-05-02T08:38:14.207Z,5.90
2023-05-02T08:40:49.319Z,5.43
2023-05-02T08:43:30.558Z,5.88
2023-05-02T08:46:05.871Z,5.80
2023-05-02T08:48:47.303Z,5.75
2023-05-02T08:51:21.729Z,5.97
2023-05-02T08:54:02.278Z,6.00
2023-05-02T08:56:35.812Z,6.10
2023-05-02T08:59:14.264Z,5.55
2023-05-02T09:02:08.824Z,5.47
2023-05-02T09:04:54.426Z,5.30
2023-05-02T09:07:26.842Z,5.97
2023-05-02T09:10:05.154Z,5.35
2023-05-02T09:12:37.586Z,6.30
2023-05-02T09:15:21.027Z,5.38
2023-05-02T09:17:51.272Z,5.97
2023-05-02T09:20:25.763Z,4.78
2023-05-02T09:22:56.178Z,4.80
2023-05-02T09:25:41.644Z,4.30
2023-05-02T09:28:32.364Z,4.55
2023-05-02T09:31:11.716Z,4.82
2023-05-02T09:33:45.005Z,4.10
2023-05-02T09:36:20.511Z,4.22
2023-05-02T09:41:27.213Z,4.20
2023-05-02T09:44:02.416Z,3.35
2023-05-02T09:46:42.554Z,4.47
2023-05-02T09:49:19.188Z,3.90
2023-05-02T09:51:51.673Z,3.72
2023-05-02T09:54:40.472Z,3.95
2023-05-02T09:57:16.767Z,4.30
2023-05-02T09:59:58.795Z,5.53
2023-05-02T10:02:36.053Z,4.70
2023-05-02T10:05:10.531Z,4.18
2023-05-02T10:07:47.262Z,4.65
2023-05-02T10:10:25.419Z,3.95
2023-05-02T10:12:55.647Z,3.95
2023-05-02T10:15:32.615Z,3.67
2023-05-02T10:18:05.606Z,4.20
2023-05-02T10:20:40.271Z,5.28
2023-05-02T10:23:10.638Z,4.18
2023-05-02T10:25:41.563Z,4.05
2023-05-02T10:28:25.510Z,3.35
2023-05-02T10:31:05.281Z,3.75
2023-05-02T10:33:49.037Z,4.10
2023-05-02T10:36:27.168Z,3.58
2023-05-02T10:38:57.409Z,3.67
2023-05-02T10:41:32.179Z,3.03
2023-05-02T10:44:10.459Z,3.38
2023-05-02T10:46:44.123Z,3.80
2023-05-02T10:49:17.039Z,3.45
2023-05-02T10:51:52.347Z,3.60
2023-05-02T10:54:26.068Z,3.72
2023-05-02T10:57:08.148Z,2.70
2023-05-02T11:00:32.105Z,3.65
2023-05-02T11:03:18.119Z,3.45
2023-05-02T11:09:38.698Z,3.78
2023-05-02T11:12:37.450Z,3.20
2023-05-02T11:19:39.932Z,3.38
2023-05-02T11:24:57.065Z,3.38
2023-05-02T11:31:02.282Z,4.65
2023-05-02T11:33:44.366Z,3.75
2023-05-02T11:36:17.060Z,3.80
2023-05-02T11:39:38.814Z,3.78
2023-05-02T11:41:58.408Z,5.15
2023-05-02T11:45:25.516Z,3.70
2023-05-02T11:48:25.581Z,3.47
2023-05-02T12:12:38.451Z,4.68
2023-05-02T12:15:12.721Z,4.85
2023-05-02T12:18:01.748Z,6.07
2023-05-02T12:20:46.648Z,5.05
2023-05-02T12:58:31.524Z,4.93
2023-05-02T13:20:05.021Z,2.75
2023-05-02T13:30:06.627Z,2.17
2023-05-02T13:32:41.454Z,1.92
2023-05-02T13:35:27.176Z,2.20
2023-05-02T13:38:06.092Z,3.33
2023-05-02T13:40:33.231Z,2.17
2023-05-02T13:43:04.531Z,1.85
2023-05-02T13:45:34.549Z,1.83
2023-05-02T13:48:04.989Z,2.10
2023-05-02T13:50:45.198Z,1.80
2023-05-02T13:53:21.549Z,1.90
2023-05-02T13:55:53.543Z,1.30
2023-05-02T13:58:31.786Z,1.63
2023-05-02T14:01:02.162Z,1.30
2023-05-02T14:03:34.470Z,1.38
2023-05-02T14:06:06.632Z,1.40
2023-05-02T14:08:39.054Z,1.85
2023-05-02T14:11:08.546Z,2.00
2023-05-02T14:13:48.568Z,1.83
2023-05-02T14:16:20.749Z,1.90
2023-05-02T14:18:50.649Z,2.25
2023-05-02T14:21:31.457Z,1.50
2023-05-02T14:23:59.199Z,1.25
2023-05-02T14:26:27.247Z,1.50
2023-05-02T14:28:58.166Z,1.70
2023-05-02T14:31:30.192Z,1.75
2023-05-02T14:34:06.879Z,1.40
2023-05-02T14:36:43.443Z,1.20
2023-05-02T14:39:36.452Z,1.63
2023-05-02T14:42:13.360Z,1.67
2023-05-02T14:44:50.848Z,1.40
2023-05-02T14:47:25.545Z,1.20
2023-05-02T14:49:57.228Z,1.25
2023-05-02T14:52:30.154Z,1.20
2023-05-02T14:55:08.991Z,1.38
2023-05-02T14:57:40.477Z,1.20
2023-05-02T15:00:14.876Z,1.40
2023-05-02T15:02:44.982Z,1.50
2023-05-02T15:05:17.912Z,1.48
2023-05-02T15:07:48.485Z,1.45
2023-05-02T15:10:18.284Z,1.25
2023-05-02T15:12:49.580Z,1.90
2023-05-02T15:15:42.135Z,1.60
2023-05-02T15:18:14.737Z,1.40
2023-05-02T15:20:42.607Z,1.77
2023-05-02T15:23:12.069Z,1.73
2023-05-02T15:25:45.460Z,1.55
2023-05-02T15:28:17.109Z,2.10
2023-05-02T15:30:45.528Z,2.00
2023-05-02T15:33:18.649Z,1.90
2023-05-02T15:36:00.822Z,2.00
2023-05-02T15:38:33.250Z,2.03
2023-05-02T15:41:03.620Z,2.22
2023-05-02T15:43:39.583Z,2.50
2023-05-02T15:46:10.200Z,2.40
2023-05-02T15:48:37.817Z,2.00
2023-05-02T15:51:15.531Z,1.85
2023-05-02T15:53:52.919Z,2.15
2023-05-02T15:56:25.326Z,2.10
2023-05-02T15:58:57.598Z,2.03
2023-05-02T16:01:46.670Z,2.17
2023-05-02T16:04:25.555Z,1.75
2023-05-02T16:07:01.714Z,2.00
2023-05-02T16:09:33.818Z,1.90
2023-05-02T16:12:08.787Z,2.70
2023-05-02T16:14:41.582Z,2.05
2023-05-02T16:17:13.868Z,2.63
2023-05-02T16:19:43.744Z,2.20
2023-05-02T16:22:13.717Z,2.30
2023-05-02T16:24:51.022Z,1.90
2023-05-02T16:27:20.925Z,2.00
2023-05-02T16:29:56.642Z,1.90
2023-05-02T16:32:42.263Z,1.80
2023-05-02T16:35:13.637Z,1.80
2023-05-02T16:37:46.626Z,1.90
2023-05-02T16:40:18.550Z,1.50
2023-05-02T16:42:51.625Z,1.58
2023-05-02T16:45:27.527Z,1.40
2023-05-02T16:47:54.576Z,2.20
2023-05-02T16:50:22.304Z,1.25
2023-05-02T16:52:55.082Z,1.40
2023-05-02T16:55:25.469Z,1.15
2023-05-02T17:00:42.721Z,2.47
2023-05-02T17:03:17.206Z,1.67
2023-05-02T17:05:50.766Z,1.20
2023-05-02T17:08:17.788Z,1.13
2023-05-02T17:10:53.867Z,2.30
2023-05-02T17:13:29.990Z,2.40
2023-05-02T17:16:00.616Z,2.00
2023-05-02T17:18:36.828Z,5.47
2023-05-02T17:21:06.013Z,2.38
2023-05-02T17:23:40.475Z,2.58
2023-05-02T17:26:14.673Z,2.58
2023-05-02T17:28:45.868Z,2.40
2023-05-02T17:31:14.082Z,2.53
2023-05-02T17:33:46.886Z,2.25
2023-05-02T17:36:18.600Z,1.80
2023-05-02T17:38:55.595Z,2.08
2023-05-02T17:41:30.243Z,2.50
2023-05-02T17:44:01.815Z,2.00
2023-05-02T17:46:29.227Z,1.90
2023-05-02T17:48:59.024Z,1.55
2023-05-02T17:51:28.813Z,1.85
2023-05-02T17:56:47.890Z,1.70
2023-05-02T17:59:20.495Z,1.73
2023-05-02T18:04:45.816Z,2.75
2023-05-02T18:07:34.863Z,1.70
2023-05-02T18:10:05.274Z,1.30
2023-05-02T18:12:33.683Z,3.30
2023-05-02T18:15:04.540Z,1.40
2023-05-02T18:17:35.180Z,2.30
2023-05-02T18:20:29.142Z,1.60
2023-05-02T18:23:43.626Z,1.63
2023-05-02T18:26:13.227Z,3.78
2023-05-02T18:28:50.325Z,1.50
2023-05-02T18:31:27.480Z,1.90
2023-05-02T18:34:39.027Z,2.38
2023-05-02T18:37:07.858Z,1.92
2023-05-02T18:39:35.421Z,4.47
2023-05-02T18:42:08.649Z,2.67
2023-05-02T18:44:36.016Z,2.13
2023-05-02T18:47:15.915Z,2.85
2023-05-02T18:49:50.919Z,1.90
2023-05-02T18:52:25.009Z,2.00
2023-05-02T19:08:56.627Z,2.60
2023-05-02T19:11:42.805Z,2.88
2023-05-02T19:14:22.703Z,2.85
2023-05-02T19:16:54.897Z,3.15
2023-05-02T19:19:35.020Z,3.20
2023-05-02T19:22:06.002Z,2.63
2023-05-02T19:24:34.015Z,2.60
2023-05-02T19:27:15.692Z,4.18
2023-05-02T19:29:47.397Z,2.97
2023-05-02T19:32:17.830Z,2.60
2023-05-02T19:34:51.517Z,2.50
2023-05-02T19:37:25.204Z,3.00
2023-05-02T19:40:02.462Z,2.70
2023-05-02T19:42:29.567Z,2.60
2023-05-02T19:51:28.385Z,3.53
2023-05-02T19:54:34.029Z,3.08
2023-05-02T19:57:46.440Z,2.90
2023-05-02T20:13:01.104Z,6.03
2023-05-02T20:15:29.673Z,3.83
2023-05-02T20:18:02.115Z,4.15
2023-05-02T20:20:38.975Z,3.60
2023-05-02T20:23:06.935Z,4.05
2023-05-02T20:25:38.116Z,3.95
2023-05-02T20:28:06.098Z,3.97
2023-05-02T20:30:33.714Z,4.07
2023-05-02T20:33:14.877Z,3.88
2023-05-02T20:35:43.759Z,4.32
2023-05-02T20:38:11.314Z,4.70
2023-05-02T20:40:40.032Z,4.28
2023-05-02T20:43:08.718Z,5.03
2023-05-02T20:45:36.202Z,7.07
2023-05-02T20:48:03.322Z,3.85
2023-05-02T20:50:31.317Z,4.05
2023-05-02T20:52:59.440Z,3.90
2023-05-02T20:55:26.566Z,3.80
2023-05-02T20:57:53.924Z,4.90
2023-05-02T21:00:22.846Z,4.35
2023-05-02T21:02:52.767Z,3.97
2023-05-02T21:05:20.004Z,4.28
2023-05-02T21:07:47.301Z,3.80
2023-05-02T21:10:15.047Z,6.85
2023-05-02T21:12:42.033Z,6.82
2023-05-02T21:15:09.232Z,4.15
2023-05-02T21:17:38.720Z,3.80
2023-05-02T21:20:10.269Z,3.35
2023-05-02T21:22:37.915Z,3.70
2023-05-02T21:25:05.484Z,4.10
2023-05-02T21:27:32.672Z,4.32
2023-05-02T21:30:00.414Z,3.10
2023-05-02T21:32:29.535Z,3.55
2023-05-02T21:34:56.732Z,3.67
2023-05-02T21:37:27.456Z,3.67
2023-05-02T21:39:55.126Z,3.92
2023-05-02T21:42:39.490Z,3.75
2023-05-02T21:45:07.226Z,3.47
2023-05-02T21:47:34.601Z,3.05
2023-05-02T21:50:02.280Z,3.88
2023-05-02T21:52:31.725Z,3.40
2023-05-02T21:54:58.891Z,3.42
2023-05-02T21:57:25.934Z,3.25
2023-05-02T22:00:02.266Z,3.20
2023-05-02T22:02:29.849Z,3.70
2023-05-02T22:04:57.922Z,3.53
2023-05-02T22:07:25.108Z,3.30
2023-05-02T22:09:52.651Z,3.10
2023-05-02T22:12:20.222Z,3.00
2023-05-02T22:15:05.785Z,3.17
2023-05-02T22:17:33.015Z,3.35
2023-05-02T22:20:00.120Z,3.53
2023-05-02T22:22:28.002Z,3.63
2023-05-02T22:24:55.556Z,3.83
2023-05-02T22:27:22.448Z,3.47
2023-05-02T22:29:49.518Z,3.30
2023-05-02T22:32:16.647Z,3.22
2023-05-02T22:34:43.926Z,3.15
2023-05-02T22:37:11.097Z,3.28
2023-05-02T22:39:38.377Z,3.28
2023-05-02T22:42:06.019Z,2.90
2023-05-02T22:44:37.977Z,3.28
2023-05-02T22:47:10.815Z,2.88
2023-05-02T22:49:38.350Z,3.17
2023-05-02T22:52:05.506Z,2.90
2023-05-02T22:54:32.894Z,3.70
2023-05-02T22:57:00.951Z,3.50
2023-05-02T22:59:29.640Z,3.67
2023-05-02T23:01:59.408Z,3.50
2023-05-02T23:04:26.457Z,3.30
2023-05-02T23:06:56.355Z,3.50
2023-05-02T23:09:23.562Z,3.13
2023-05-02T23:11:51.510Z,3.17
2023-05-02T23:14:20.765Z,3.03
2023-05-02T23:16:50.034Z,3.60
2023-05-02T23:19:17.558Z,3.13
2023-05-02T23:21:45.381Z,3.60
2023-05-02T23:24:12.802Z,3.77
2023-05-02T23:26:40.814Z,3.70
2023-05-02T23:29:08.469Z,3.70
2023-05-02T23:31:35.611Z,4.18
2023-05-02T23:34:03.070Z,3.78
2023-05-02T23:36:31.334Z,3.47
2023-05-02T23:38:58.577Z,3.40
2023-05-02T23:41:46.270Z,4.10
2023-05-02T23:44:13.522Z,4.00
2023-05-02T23:46:40.979Z,4.00
2023-05-02T23:49:08.108Z,4.03
2023-05-02T23:51:41.793Z,4.10
2023-05-02T23:54:09.902Z,4.22
2023-05-02T23:56:36.986Z,4.45
2023-05-02T23:59:03.933Z,3.97
